sensor_id;sensor_type;location;lat;lon;timestamp;temperature;humidity
54796;DHT22;40693;43.884;20.340;2023-02-26T00:00:59;230.50;2252.80
54796;DHT22;40693;43.884;20.340;2023-02-26T00:03:28;205.70;2252.80
54796;DHT22;40693;43.884;20.340;2023-02-26T00:06:16;205.70;2252.80
54796;DHT22;40693;43.884;20.340;2023-02-26T00:09:03;205.60;2252.80
54796;DHT22;40693;43.884;20.340;2023-02-26T00:12:08;205.50;2252.80
54796;DHT22;40693;43.884;20.340;2023-02-26T00:14:40;205.60;2252.80
54796;DHT22;40693;43.884;20.340;2023-02-26T00:22:32;205.60;2252.80
54796;DHT22;40693;43.884;20.340;2023-02-26T00:25:14;205.50;2252.80
54796;DHT22;40693;43.884;20.340;2023-02-26T00:28:07;205.50;2252.80
54796;DHT22;40693;43.884;20.340;2023-02-26T00:30:34;205.50;2252.80
54796;DHT22;40693;43.884;20.340;2023-02-26T00:33:19;205.40;2252.80
54796;DHT22;40693;43.884;20.340;2023-02-26T00:39:05;205.50;2252.80
54796;DHT22;40693;43.884;20.340;2023-02-26T00:41:37;205.40;2252.80
54796;DHT22;40693;43.884;20.340;2023-02-26T00:44:04;205.40;2252.80
54796;DHT22;40693;43.884;20.340;2023-02-26T00:53:11;205.60;2252.80
54796;DHT22;40693;43.884;20.340;2023-02-26T00:55:43;205.50;2252.80
54796;DHT22;40693;43.884;20.340;2023-02-26T00:58:21;205.40;2252.80
54796;DHT22;40693;43.884;20.340;2023-02-26T01:01:07;205.50;2252.80
54796;DHT22;40693;43.884;20.340;2023-02-26T01:04:07;205.40;2252.80
54796;DHT22;40693;43.884;20.340;2023-02-26T01:06:52;205.40;2252.80
54796;DHT22;40693;43.884;20.340;2023-02-26T01:09:49;205.30;2252.80
54796;DHT22;40693;43.884;20.340;2023-02-26T01:12:14;205.30;2252.80
54796;DHT22;40693;43.884;20.340;2023-02-26T01:15:08;205.20;2252.80
54796;DHT22;40693;43.884;20.340;2023-02-26T01:17:49;205.20;2252.80
54796;DHT22;40693;43.884;20.340;2023-02-26T01:20:25;205.30;2252.80
54796;DHT22;40693;43.884;20.340;2023-02-26T01:23:14;205.30;2252.80
54796;DHT22;40693;43.884;20.340;2023-02-26T01:25:54;205.40;2252.80
54796;DHT22;40693;43.884;20.340;2023-02-26T01:35:20;205.40;2252.80
54796;DHT22;40693;43.884;20.340;2023-02-26T01:50:27;205.40;2252.80
54796;DHT22;40693;43.884;20.340;2023-02-26T01:55:59;205.20;2252.80
54796;DHT22;40693;43.884;20.340;2023-02-26T01:58:39;205.10;2252.80
54796;DHT22;40693;43.884;20.340;2023-02-26T02:04:00;204.90;2252.80
54796;DHT22;40693;43.884;20.340;2023-02-26T02:06:27;204.80;2252.80
54796;DHT22;40693;43.884;20.340;2023-02-26T02:08:54;180.10;2252.80
54796;DHT22;40693;43.884;20.340;2023-02-26T02:11:20;180.10;2252.80
54796;DHT22;40693;43.884;20.340;2023-02-26T02:36:02;179.90;2252.80
54796;DHT22;40693;43.884;20.340;2023-02-26T02:38:20;179.90;2252.80
54796;DHT22;40693;43.884;20.340;2023-02-26T02:40:52;179.90;2252.80
54796;DHT22;40693;43.884;20.340;2023-02-26T02:43:38;179.90;2252.80
54796;DHT22;40693;43.884;20.340;2023-02-26T02:46:16;179.90;2252.80
54796;DHT22;40693;43.884;20.340;2023-02-26T02:49:03;180.00;2252.80
54796;DHT22;40693;43.884;20.340;2023-02-26T02:51:31;180.00;2252.80
54796;DHT22;40693;43.884;20.340;2023-02-26T02:54:06;179.90;2252.80
54796;DHT22;40693;43.884;20.340;2023-02-26T02:57:11;179.90;2252.80
54796;DHT22;40693;43.884;20.340;2023-02-26T03:00:03;179.90;2252.80
54796;DHT22;40693;43.884;20.340;2023-02-26T03:02:56;179.90;2252.80
54796;DHT22;40693;43.884;20.340;2023-02-26T03:08:59;179.90;2252.80
54796;DHT22;40693;43.884;20.340;2023-02-26T03:11:34;179.80;2252.80
54796;DHT22;40693;43.884;20.340;2023-02-26T03:14:27;179.90;2252.80
54796;DHT22;40693;43.884;20.340;2023-02-26T03:22:56;179.80;2252.80
54796;DHT22;40693;43.884;20.340;2023-02-26T03:26:25;179.80;2252.80
54796;DHT22;40693;43.884;20.340;2023-02-26T03:29:07;179.70;2252.80
54796;DHT22;40693;43.884;20.340;2023-02-26T03:32:01;179.70;2252.80
54796;DHT22;40693;43.884;20.340;2023-02-26T03:35:37;179.60;2252.80
54796;DHT22;40693;43.884;20.340;2023-02-26T03:37:40;179.60;2252.80
54796;DHT22;40693;43.884;20.340;2023-02-26T03:44:02;179.60;2252.80
54796;DHT22;40693;43.884;20.340;2023-02-26T03:46:51;179.60;2252.80
54796;DHT22;40693;43.884;20.340;2023-02-26T03:52:40;179.70;2252.80
54796;DHT22;40693;43.884;20.340;2023-02-26T03:55:37;179.70;2252.80
54796;DHT22;40693;43.884;20.340;2023-02-26T03:58:35;179.70;2252.80
54796;DHT22;40693;43.884;20.340;2023-02-26T04:01:22;179.80;2252.80
54796;DHT22;40693;43.884;20.340;2023-02-26T04:04:19;179.80;2252.80
54796;DHT22;40693;43.884;20.340;2023-02-26T04:06:50;179.90;2252.80
54796;DHT22;40693;43.884;20.340;2023-02-26T04:09:19;179.90;2252.80
54796;DHT22;40693;43.884;20.340;2023-02-26T04:15:09;179.90;2252.80
54796;DHT22;40693;43.884;20.340;2023-02-26T04:17:44;179.90;2252.80
54796;DHT22;40693;43.884;20.340;2023-02-26T04:20:29;180.00;2252.80
54796;DHT22;40693;43.884;20.340;2023-02-26T04:23:05;180.10;2252.80
54796;DHT22;40693;43.884;20.340;2023-02-26T04:25:36;180.10;2252.80
54796;DHT22;40693;43.884;20.340;2023-02-26T04:28:28;204.80;2252.80
54796;DHT22;40693;43.884;20.340;2023-02-26T04:31:22;204.90;2252.80
54796;DHT22;40693;43.884;20.340;2023-02-26T04:33:51;204.90;2252.80
54796;DHT22;40693;43.884;20.340;2023-02-26T04:36:19;204.90;2252.80
54796;DHT22;40693;43.884;20.340;2023-02-26T04:39:17;204.90;2252.80
54796;DHT22;40693;43.884;20.340;2023-02-26T04:42:14;204.80;2252.80
54796;DHT22;40693;43.884;20.340;2023-02-26T04:44:58;180.10;2252.80
54796;DHT22;40693;43.884;20.340;2023-02-26T04:47:52;180.10;2252.80
54796;DHT22;40693;43.884;20.340;2023-02-26T04:50:28;180.10;2252.80
54796;DHT22;40693;43.884;20.340;2023-02-26T04:52:54;180.00;2252.80
54796;DHT22;40693;43.884;20.340;2023-02-26T04:55:48;179.90;2252.80
54796;DHT22;40693;43.884;20.340;2023-02-26T05:01:54;180.00;2252.80
54796;DHT22;40693;43.884;20.340;2023-02-26T05:04:33;180.00;2252.80
54796;DHT22;40693;43.884;20.340;2023-02-26T05:07:27;179.90;2252.80
54796;DHT22;40693;43.884;20.340;2023-02-26T05:10:10;179.90;2252.80
54796;DHT22;40693;43.884;20.340;2023-02-26T05:12:46;179.20;2252.80
54796;DHT22;40693;43.884;20.340;2023-02-26T05:15:12;179.80;2252.80
54796;DHT22;40693;43.884;20.340;2023-02-26T05:21:13;179.80;2252.80
54796;DHT22;40693;43.884;20.340;2023-02-26T05:24:07;179.80;2252.80
54796;DHT22;40693;43.884;20.340;2023-02-26T05:26:43;179.70;2252.80
54796;DHT22;40693;43.884;20.340;2023-02-26T05:29:26;179.70;2252.80
54796;DHT22;40693;43.884;20.340;2023-02-26T05:32:15;179.50;2252.80
54796;DHT22;40693;43.884;20.340;2023-02-26T05:34:55;179.30;2252.80
54796;DHT22;40693;43.884;20.340;2023-02-26T05:37:55;179.20;2252.80
54796;DHT22;40693;43.884;20.340;2023-02-26T05:40:34;154.40;2252.80
54796;DHT22;40693;43.884;20.340;2023-02-26T05:43:52;154.40;2252.80
54796;DHT22;40693;43.884;20.340;2023-02-26T05:46:50;154.30;2252.80
54796;DHT22;40693;43.884;20.340;2023-02-26T05:49:55;153.80;2252.80
54796;DHT22;40693;43.884;20.340;2023-02-26T05:52:27;153.80;2252.80
54796;DHT22;40693;43.884;20.340;2023-02-26T05:54:53;153.80;2252.80
54796;DHT22;40693;43.884;20.340;2023-02-26T05:57:19;153.60;2252.80
54796;DHT22;40693;43.884;20.340;2023-02-26T05:59:44;153.70;2252.80
54796;DHT22;40693;43.884;20.340;2023-02-26T06:02:35;153.60;2252.80
54796;DHT22;40693;43.884;20.340;2023-02-26T06:05:30;128.90;2252.80
54796;DHT22;40693;43.884;20.340;2023-02-26T06:11:13;128.80;2252.80
54796;DHT22;40693;43.884;20.340;2023-02-26T06:13:50;128.70;2252.80
54796;DHT22;40693;43.884;20.340;2023-02-26T06:16:23;128.70;2252.80
54796;DHT22;40693;43.884;20.340;2023-02-26T06:19:00;128.50;2252.80
54796;DHT22;40693;43.884;20.340;2023-02-26T06:21:33;128.50;2252.80
54796;DHT22;40693;43.884;20.340;2023-02-26T06:23:59;128.60;2252.80
54796;DHT22;40693;43.884;20.340;2023-02-26T06:29:29;128.60;2252.80
54796;DHT22;40693;43.884;20.340;2023-02-26T06:32:05;128.70;2252.80
54796;DHT22;40693;43.884;20.340;2023-02-26T06:34:31;128.70;2252.80
54796;DHT22;40693;43.884;20.340;2023-02-26T06:36:57;128.80;2252.80
54796;DHT22;40693;43.884;20.340;2023-02-26T06:39:22;128.80;2252.80
54796;DHT22;40693;43.884;20.340;2023-02-26T06:41:48;128.90;2252.80
54796;DHT22;40693;43.884;20.340;2023-02-26T06:44:14;153.60;2252.80
54796;DHT22;40693;43.884;20.340;2023-02-26T06:46:56;153.60;2252.80
54796;DHT22;40693;43.884;20.340;2023-02-26T06:52:40;128.90;2252.80
54796;DHT22;40693;43.884;20.340;2023-02-26T06:55:24;128.90;2252.80
54796;DHT22;40693;43.884;20.340;2023-02-26T06:57:56;153.60;2252.80
54796;DHT22;40693;43.884;20.340;2023-02-26T07:00:38;128.80;2252.80
54796;DHT22;40693;43.884;20.340;2023-02-26T07:03:26;128.70;2252.80
54796;DHT22;40693;43.884;20.340;2023-02-26T07:06:00;128.60;2252.80
54796;DHT22;40693;43.884;20.340;2023-02-26T07:08:31;128.50;2252.80
54796;DHT22;40693;43.884;20.340;2023-02-26T07:11:15;128.60;2252.80
54796;DHT22;40693;43.884;20.340;2023-02-26T07:13:46;128.60;2252.80
54796;DHT22;40693;43.884;20.340;2023-02-26T07:16:12;128.80;2252.80
54796;DHT22;40693;43.884;20.340;2023-02-26T07:19:06;128.80;2252.80
54796;DHT22;40693;43.884;20.340;2023-02-26T07:21:32;128.90;2252.80
54796;DHT22;40693;43.884;20.340;2023-02-26T07:24:22;128.90;2252.80
54796;DHT22;40693;43.884;20.340;2023-02-26T07:27:00;153.60;2252.80
54796;DHT22;40693;43.884;20.340;2023-02-26T07:29:25;128.90;2252.80
54796;DHT22;40693;43.884;20.340;2023-02-26T07:32:17;153.60;2252.80
54796;DHT22;40693;43.884;20.340;2023-02-26T07:34:43;128.90;2252.80
54796;DHT22;40693;43.884;20.340;2023-02-26T07:37:08;153.60;2252.80
54796;DHT22;40693;43.884;20.340;2023-02-26T07:43:00;153.70;2252.80
54796;DHT22;40693;43.884;20.340;2023-02-26T07:45:25;153.60;2252.80
54796;DHT22;40693;43.884;20.340;2023-02-26T07:47:53;128.90;2252.80
54796;DHT22;40693;43.884;20.340;2023-02-26T07:50:57;128.90;2252.80
54796;DHT22;40693;43.884;20.340;2023-02-26T07:53:46;128.80;2252.80
54796;DHT22;40693;43.884;20.340;2023-02-26T07:56:12;128.80;2252.80
54796;DHT22;40693;43.884;20.340;2023-02-26T07:58:58;128.80;2252.80
54796;DHT22;40693;43.884;20.340;2023-02-26T08:01:46;128.80;2252.80
54796;DHT22;40693;43.884;20.340;2023-02-26T08:04:21;128.90;2252.80
54796;DHT22;40693;43.884;20.340;2023-02-26T08:07:01;128.80;2252.80
54796;DHT22;40693;43.884;20.340;2023-02-26T08:09:29;128.80;2252.80
54796;DHT22;40693;43.884;20.340;2023-02-26T08:12:33;128.90;2252.80
54796;DHT22;40693;43.884;20.340;2023-02-26T08:15:08;128.90;2252.80
54796;DHT22;40693;43.884;20.340;2023-02-26T08:17:53;128.90;2252.80
54796;DHT22;40693;43.884;20.340;2023-02-26T08:20:24;153.70;2252.80
54796;DHT22;40693;43.884;20.340;2023-02-26T08:22:55;153.60;2252.80
54796;DHT22;40693;43.884;20.340;2023-02-26T08:25:46;153.70;2252.80
54796;DHT22;40693;43.884;20.340;2023-02-26T08:28:15;153.60;2252.80
54796;DHT22;40693;43.884;20.340;2023-02-26T08:30:41;153.60;2252.80
54796;DHT22;40693;43.884;20.340;2023-02-26T08:33:15;153.60;2252.80
54796;DHT22;40693;43.884;20.340;2023-02-26T08:36:16;153.70;2252.80
54796;DHT22;40693;43.884;20.340;2023-02-26T08:38:59;153.60;2252.80
54796;DHT22;40693;43.884;20.340;2023-02-26T08:42:13;153.70;2252.80
54796;DHT22;40693;43.884;20.340;2023-02-26T08:44:59;153.60;2252.80
54796;DHT22;40693;43.884;20.340;2023-02-26T08:47:47;153.70;2252.80
54796;DHT22;40693;43.884;20.340;2023-02-26T08:50:15;128.90;2252.80
54796;DHT22;40693;43.884;20.340;2023-02-26T08:52:59;128.90;2252.80
54796;DHT22;40693;43.884;20.340;2023-02-26T08:55:28;128.80;2252.80
54796;DHT22;40693;43.884;20.340;2023-02-26T08:58:20;128.80;2252.80
54796;DHT22;40693;43.884;20.340;2023-02-26T09:01:26;128.60;2252.80
54796;DHT22;40693;43.884;20.340;2023-02-26T09:03:58;128.30;2252.80
54796;DHT22;40693;43.884;20.340;2023-02-26T09:06:26;128.40;2252.80
54796;DHT22;40693;43.884;20.340;2023-02-26T09:08:55;128.20;2252.80
54796;DHT22;40693;43.884;20.340;2023-02-26T09:11:32;128.30;2252.80
54796;DHT22;40693;43.884;20.340;2023-02-26T09:14:02;128.20;2252.80
54796;DHT22;40693;43.884;20.340;2023-02-26T09:16:28;128.20;2252.80
54796;DHT22;40693;43.884;20.340;2023-02-26T09:18:54;128.20;2252.80
54796;DHT22;40693;43.884;20.340;2023-02-26T09:21:31;128.20;2252.80
54796;DHT22;40693;43.884;20.340;2023-02-26T09:24:10;128.10;2252.80
54796;DHT22;40693;43.884;20.340;2023-02-26T09:26:36;128.00;2252.80
54796;DHT22;40693;43.884;20.340;2023-02-26T09:29:05;128.10;2252.80
54796;DHT22;40693;43.884;20.340;2023-02-26T09:31:31;128.00;2252.80
54796;DHT22;40693;43.884;20.340;2023-02-26T09:34:06;103.30;2227.20
54796;DHT22;40693;43.884;20.340;2023-02-26T09:36:35;128.00;2252.80
54796;DHT22;40693;43.884;20.340;2023-02-26T09:39:02;128.10;2252.80
54796;DHT22;40693;43.884;20.340;2023-02-26T09:41:40;128.50;2252.80
54796;DHT22;40693;43.884;20.340;2023-02-26T09:44:28;128.10;2252.80
54796;DHT22;40693;43.884;20.340;2023-02-26T09:49:58;128.10;2252.80
54796;DHT22;40693;43.884;20.340;2023-02-26T09:52:31;128.10;2252.80
54796;DHT22;40693;43.884;20.340;2023-02-26T09:55:20;128.10;2252.80
54796;DHT22;40693;43.884;20.340;2023-02-26T09:57:51;128.10;2252.80
54796;DHT22;40693;43.884;20.340;2023-02-26T10:00:35;128.10;2252.80
54796;DHT22;40693;43.884;20.340;2023-02-26T10:15:18;128.10;2252.80
54796;DHT22;40693;43.884;20.340;2023-02-26T10:18:12;128.10;2252.80
54796;DHT22;40693;43.884;20.340;2023-02-26T10:21:06;128.30;2252.80
54796;DHT22;40693;43.884;20.340;2023-02-26T10:23:57;128.20;2252.80
54796;DHT22;40693;43.884;20.340;2023-02-26T10:26:45;128.30;2252.80
54796;DHT22;40693;43.884;20.340;2023-02-26T10:29:43;128.40;2252.80
54796;DHT22;40693;43.884;20.340;2023-02-26T10:32:40;128.50;2252.80
54796;DHT22;40693;43.884;20.340;2023-02-26T10:35:16;128.50;2252.80
54796;DHT22;40693;43.884;20.340;2023-02-26T10:38:05;128.50;2252.80
54796;DHT22;40693;43.884;20.340;2023-02-26T10:41:17;128.60;2252.80
54796;DHT22;40693;43.884;20.340;2023-02-26T10:44:08;128.50;2252.80
54796;DHT22;40693;43.884;20.340;2023-02-26T10:50:05;128.40;2252.80
54796;DHT22;40693;43.884;20.340;2023-02-26T10:52:32;128.60;2252.80
54796;DHT22;40693;43.884;20.340;2023-02-26T10:58:37;128.80;2252.80
54796;DHT22;40693;43.884;20.340;2023-02-26T11:01:12;128.90;2252.80
54796;DHT22;40693;43.884;20.340;2023-02-26T11:03:50;153.70;2252.80
54796;DHT22;40693;43.884;20.340;2023-02-26T11:09:24;153.90;2252.80
54796;DHT22;40693;43.884;20.340;2023-02-26T11:12:04;154.00;2252.80
54796;DHT22;40693;43.884;20.340;2023-02-26T11:14:37;154.10;2252.80
54796;DHT22;40693;43.884;20.340;2023-02-26T11:17:15;154.20;2252.80
54796;DHT22;40693;43.884;20.340;2023-02-26T11:22:25;154.10;2252.80
54796;DHT22;40693;43.884;20.340;2023-02-26T11:24:54;154.00;2252.80
54796;DHT22;40693;43.884;20.340;2023-02-26T11:27:29;153.90;2252.80
54796;DHT22;40693;43.884;20.340;2023-02-26T11:29:57;154.00;2252.80
54796;DHT22;40693;43.884;20.340;2023-02-26T11:32:32;154.00;2252.80
54796;DHT22;40693;43.884;20.340;2023-02-26T11:35:01;154.10;2252.80
54796;DHT22;40693;43.884;20.340;2023-02-26T11:37:38;128.90;2252.80
54796;DHT22;40693;43.884;20.340;2023-02-26T11:40:20;154.10;2252.80
54796;DHT22;40693;43.884;20.340;2023-02-26T11:43:17;154.10;2252.80
54796;DHT22;40693;43.884;20.340;2023-02-26T11:45:49;154.20;2252.80
54796;DHT22;40693;43.884;20.340;2023-02-26T11:48:25;154.20;2252.80
54796;DHT22;40693;43.884;20.340;2023-02-26T11:50:56;154.10;2252.80
54796;DHT22;40693;43.884;20.340;2023-02-26T11:53:29;154.20;2252.80
54796;DHT22;40693;43.884;20.340;2023-02-26T11:56:26;154.20;2252.80
54796;DHT22;40693;43.884;20.340;2023-02-26T11:59:23;154.40;2252.80
54796;DHT22;40693;43.884;20.340;2023-02-26T12:01:53;154.30;2252.80
54796;DHT22;40693;43.884;20.340;2023-02-26T12:04:23;154.40;2252.80
54796;DHT22;40693;43.884;20.340;2023-02-26T12:06:51;154.30;2252.80
54796;DHT22;40693;43.884;20.340;2023-02-26T12:09:29;154.40;2252.80
54796;DHT22;40693;43.884;20.340;2023-02-26T12:12:32;154.50;2252.80
54796;DHT22;40693;43.884;20.340;2023-02-26T12:15:39;154.50;2252.80
54796;DHT22;40693;43.884;20.340;2023-02-26T12:29:14;179.20;2252.80
54796;DHT22;40693;43.884;20.340;2023-02-26T12:43:52;179.30;2252.80
54796;DHT22;40693;43.884;20.340;2023-02-26T12:54:02;154.40;2252.80
54796;DHT22;40693;43.884;20.340;2023-02-26T13:02:19;154.20;2252.80
54796;DHT22;40693;43.884;20.340;2023-02-26T13:07:50;153.90;2252.80
54796;DHT22;40693;43.884;20.340;2023-02-26T13:20:16;153.80;2252.80
54796;DHT22;40693;43.884;20.340;2023-02-26T13:23:13;154.00;2252.80
54796;DHT22;40693;43.884;20.340;2023-02-26T13:25:44;154.00;2252.80
54796;DHT22;40693;43.884;20.340;2023-02-26T13:31:54;154.00;2252.80
54796;DHT22;40693;43.884;20.340;2023-02-26T13:36:52;154.00;2252.80
54796;DHT22;40693;43.884;20.340;2023-02-26T13:40:05;154.00;2252.80
54796;DHT22;40693;43.884;20.340;2023-02-26T13:45:37;153.90;2252.80
54796;DHT22;40693;43.884;20.340;2023-02-26T13:48:12;154.00;2252.80
54796;DHT22;40693;43.884;20.340;2023-02-26T13:55:50;154.20;2252.80
54796;DHT22;40693;43.884;20.340;2023-02-26T13:58:35;154.00;2252.80
54796;DHT22;40693;43.884;20.340;2023-02-26T14:06:57;153.80;2252.80
54796;DHT22;40693;43.884;20.340;2023-02-26T14:09:42;153.80;2252.80
54796;DHT22;40693;43.884;20.340;2023-02-26T14:20:13;128.70;2252.80
54796;DHT22;40693;43.884;20.340;2023-02-26T14:22:41;128.80;2252.80
54796;DHT22;40693;43.884;20.340;2023-02-26T14:31:23;128.70;2252.80
54796;DHT22;40693;43.884;20.340;2023-02-26T14:37:14;128.60;2252.80
54796;DHT22;40693;43.884;20.340;2023-02-26T14:40:25;128.60;2252.80
54796;DHT22;40693;43.884;20.340;2023-02-26T14:42:58;128.50;2252.80
54796;DHT22;40693;43.884;20.340;2023-02-26T14:45:31;128.50;2252.80
54796;DHT22;40693;43.884;20.340;2023-02-26T14:48:05;128.60;2252.80
54796;DHT22;40693;43.884;20.340;2023-02-26T15:02:01;128.40;2252.80
54796;DHT22;40693;43.884;20.340;2023-02-26T15:05:03;128.40;2252.80
54796;DHT22;40693;43.884;20.340;2023-02-26T15:24:16;128.50;2252.80
54796;DHT22;40693;43.884;20.340;2023-02-26T15:27:14;128.20;2252.80
54796;DHT22;40693;43.884;20.340;2023-02-26T15:30:12;128.60;2252.80
54796;DHT22;40693;43.884;20.340;2023-02-26T15:32:39;128.50;2252.80
54796;DHT22;40693;43.884;20.340;2023-02-26T15:35:26;128.40;2252.80
54796;DHT22;40693;43.884;20.340;2023-02-26T15:38:02;128.30;2252.80
54796;DHT22;40693;43.884;20.340;2023-02-26T15:40:33;128.60;2252.80
54796;DHT22;40693;43.884;20.340;2023-02-26T15:43:00;128.30;2252.80
54796;DHT22;40693;43.884;20.340;2023-02-26T15:45:31;128.20;2252.80
54796;DHT22;40693;43.884;20.340;2023-02-26T15:48:03;128.30;2252.80
54796;DHT22;40693;43.884;20.340;2023-02-26T15:50:36;128.30;2252.80
54796;DHT22;40693;43.884;20.340;2023-02-26T15:53:04;128.40;2252.80
54796;DHT22;40693;43.884;20.340;2023-02-26T15:55:35;128.40;2252.80
54796;DHT22;40693;43.884;20.340;2023-02-26T15:58:01;128.40;2252.80
54796;DHT22;40693;43.884;20.340;2023-02-26T16:00:32;128.30;2252.80
54796;DHT22;40693;43.884;20.340;2023-02-26T16:03:00;128.40;2252.80
54796;DHT22;40693;43.884;20.340;2023-02-26T16:06:05;128.40;2252.80
54796;DHT22;40693;43.884;20.340;2023-02-26T16:08:31;128.30;2252.80
54796;DHT22;40693;43.884;20.340;2023-02-26T16:10:59;128.30;2252.80
54796;DHT22;40693;43.884;20.340;2023-02-26T16:13:34;128.20;2252.80
54796;DHT22;40693;43.884;20.340;2023-02-26T16:16:10;128.20;2252.80
54796;DHT22;40693;43.884;20.340;2023-02-26T16:18:50;128.30;2252.80
54796;DHT22;40693;43.884;20.340;2023-02-26T16:21:30;128.30;2252.80
54796;DHT22;40693;43.884;20.340;2023-02-26T16:23:57;128.20;2252.80
54796;DHT22;40693;43.884;20.340;2023-02-26T16:26:37;128.80;2252.80
54796;DHT22;40693;43.884;20.340;2023-02-26T16:29:15;128.10;2252.80
54796;DHT22;40693;43.884;20.340;2023-02-26T16:31:56;128.10;2252.80
54796;DHT22;40693;43.884;20.340;2023-02-26T16:37:35;128.20;2252.80
54796;DHT22;40693;43.884;20.340;2023-02-26T16:51:21;128.30;2252.80
54796;DHT22;40693;43.884;20.340;2023-02-26T16:53:55;128.30;2252.80
54796;DHT22;40693;43.884;20.340;2023-02-26T16:56:31;128.10;2252.80
54796;DHT22;40693;43.884;20.340;2023-02-26T16:59:06;128.00;2252.80
54796;DHT22;40693;43.884;20.340;2023-02-26T17:01:52;128.00;2252.80
54796;DHT22;40693;43.884;20.340;2023-02-26T17:04:24;128.00;2252.80
54796;DHT22;40693;43.884;20.340;2023-02-26T17:06:53;128.00;2252.80
54796;DHT22;40693;43.884;20.340;2023-02-26T17:09:50;128.00;2252.80
54796;DHT22;40693;43.884;20.340;2023-02-26T17:12:27;128.00;2252.80
54796;DHT22;40693;43.884;20.340;2023-02-26T17:14:59;103.30;2227.20
54796;DHT22;40693;43.884;20.340;2023-02-26T17:17:26;103.30;2227.20
54796;DHT22;40693;43.884;20.340;2023-02-26T17:19:52;103.30;2227.20
54796;DHT22;40693;43.884;20.340;2023-02-26T17:22:27;103.30;2227.20
54796;DHT22;40693;43.884;20.340;2023-02-26T17:24:53;128.00;2252.80
54796;DHT22;40693;43.884;20.340;2023-02-26T17:27:35;128.00;2252.80
54796;DHT22;40693;43.884;20.340;2023-02-26T17:30:03;128.00;2252.80
54796;DHT22;40693;43.884;20.340;2023-02-26T17:32:30;128.00;2252.80
54796;DHT22;40693;43.884;20.340;2023-02-26T17:34:56;103.20;2227.20
54796;DHT22;40693;43.884;20.340;2023-02-26T17:37:24;103.00;2227.20
54796;DHT22;40693;43.884;20.340;2023-02-26T17:39:54;103.00;2227.20
54796;DHT22;40693;43.884;20.340;2023-02-26T17:42:21;103.10;2227.20
54796;DHT22;40693;43.884;20.340;2023-02-26T17:44:48;103.10;2227.20
54796;DHT22;40693;43.884;20.340;2023-02-26T17:47:20;103.30;2227.20
54796;DHT22;40693;43.884;20.340;2023-02-26T17:49:46;103.10;2227.20
54796;DHT22;40693;43.884;20.340;2023-02-26T17:52:13;103.30;2227.20
54796;DHT22;40693;43.884;20.340;2023-02-26T17:54:42;103.20;2227.20
54796;DHT22;40693;43.884;20.340;2023-02-26T17:57:20;103.10;2227.20
54796;DHT22;40693;43.884;20.340;2023-02-26T17:59:46;103.10;2227.20
54796;DHT22;40693;43.884;20.340;2023-02-26T18:02:23;103.10;2227.20
54796;DHT22;40693;43.884;20.340;2023-02-26T18:04:52;103.10;2227.20
54796;DHT22;40693;43.884;20.340;2023-02-26T18:07:18;103.10;2227.20
54796;DHT22;40693;43.884;20.340;2023-02-26T18:09:46;103.10;2227.20
54796;DHT22;40693;43.884;20.340;2023-02-26T18:12:20;103.10;2227.20
54796;DHT22;40693;43.884;20.340;2023-02-26T18:14:46;103.00;2227.20
54796;DHT22;40693;43.884;20.340;2023-02-26T18:17:15;103.10;2227.20
54796;DHT22;40693;43.884;20.340;2023-02-26T18:19:42;103.00;2227.20
54796;DHT22;40693;43.884;20.340;2023-02-26T18:22:12;103.10;2227.20
54796;DHT22;40693;43.884;20.340;2023-02-26T18:24:39;103.10;2227.20
54796;DHT22;40693;43.884;20.340;2023-02-26T18:27:05;103.10;2227.20
54796;DHT22;40693;43.884;20.340;2023-02-26T18:29:31;103.00;2227.20
54796;DHT22;40693;43.884;20.340;2023-02-26T18:31:57;103.20;2227.20
54796;DHT22;40693;43.884;20.340;2023-02-26T18:34:25;103.10;2227.20
54796;DHT22;40693;43.884;20.340;2023-02-26T18:36:54;103.00;2227.20
54796;DHT22;40693;43.884;20.340;2023-02-26T18:39:35;102.90;2227.20
54796;DHT22;40693;43.884;20.340;2023-02-26T18:42:27;102.90;2227.20
54796;DHT22;40693;43.884;20.340;2023-02-26T18:44:58;128.00;2252.80
54796;DHT22;40693;43.884;20.340;2023-02-26T18:47:24;102.80;2227.20
54796;DHT22;40693;43.884;20.340;2023-02-26T18:49:50;102.60;2227.20
54796;DHT22;40693;43.884;20.340;2023-02-26T18:52:16;102.60;2227.20
54796;DHT22;40693;43.884;20.340;2023-02-26T18:54:45;102.60;2227.20
54796;DHT22;40693;43.884;20.340;2023-02-26T18:57:16;102.60;2227.20
54796;DHT22;40693;43.884;20.340;2023-02-26T18:59:42;102.60;2227.20
54796;DHT22;40693;43.884;20.340;2023-02-26T19:02:10;102.60;2227.20
54796;DHT22;40693;43.884;20.340;2023-02-26T19:04:38;102.60;2227.20
54796;DHT22;40693;43.884;20.340;2023-02-26T19:07:05;102.60;2227.20
54796;DHT22;40693;43.884;20.340;2023-02-26T19:09:31;102.70;2227.20
54796;DHT22;40693;43.884;20.340;2023-02-26T19:12:00;102.80;2227.20
54796;DHT22;40693;43.884;20.340;2023-02-26T19:14:26;102.90;2227.20
54796;DHT22;40693;43.884;20.340;2023-02-26T19:16:52;102.90;2227.20
54796;DHT22;40693;43.884;20.340;2023-02-26T19:19:18;102.90;2227.20
54796;DHT22;40693;43.884;20.340;2023-02-26T19:21:43;102.90;2227.20
54796;DHT22;40693;43.884;20.340;2023-02-26T19:24:10;102.90;2227.20
54796;DHT22;40693;43.884;20.340;2023-02-26T19:26:37;102.90;2227.20
54796;DHT22;40693;43.884;20.340;2023-02-26T19:29:05;102.80;2227.20
54796;DHT22;40693;43.884;20.340;2023-02-26T19:31:32;102.70;2227.20
54796;DHT22;40693;43.884;20.340;2023-02-26T19:33:57;102.80;2227.20
54796;DHT22;40693;43.884;20.340;2023-02-26T19:36:23;102.80;2227.20
54796;DHT22;40693;43.884;20.340;2023-02-26T19:38:49;102.90;2227.20
54796;DHT22;40693;43.884;20.340;2023-02-26T19:41:16;102.90;2227.20
54796;DHT22;40693;43.884;20.340;2023-02-26T19:43:47;102.90;2227.20
54796;DHT22;40693;43.884;20.340;2023-02-26T19:46:14;102.90;2227.20
54796;DHT22;40693;43.884;20.340;2023-02-26T19:48:40;102.90;2227.20
54796;DHT22;40693;43.884;20.340;2023-02-26T19:51:07;103.00;2227.20
54796;DHT22;40693;43.884;20.340;2023-02-26T19:53:33;103.00;2227.20